sensor_id;sensor_type;location;lat;lon;timestamp;temperature;humidity
66920;DHT22;53831;52.090;17.026;2022-09-28T00:00:14;8.00;99.90
66920;DHT22;53831;52.090;17.026;2022-09-28T00:01:19;7.90;99.90
66920;DHT22;53831;52.090;17.026;2022-09-28T00:02:20;7.90;99.90
66920;DHT22;53831;52.090;17.026;2022-09-28T00:03:21;7.90;99.90
66920;DHT22;53831;52.090;17.026;2022-09-28T00:04:21;7.90;99.90
66920;DHT22;53831;52.090;17.026;2022-09-28T00:05:22;7.90;99.90
66920;DHT22;53831;52.090;17.026;2022-09-28T00:06:27;7.90;99.90
66920;DHT22;53831;52.090;17.026;2022-09-28T00:07:27;7.90;99.90
66920;DHT22;53831;52.090;17.026;2022-09-28T00:08:28;7.90;99.90
66920;DHT22;53831;52.090;17.026;2022-09-28T00:09:29;7.90;99.90
66920;DHT22;53831;52.090;17.026;2022-09-28T00:10:29;7.80;99.90
66920;DHT22;53831;52.090;17.026;2022-09-28T00:11:30;7.80;99.90
66920;DHT22;53831;52.090;17.026;2022-09-28T00:12:30;7.80;99.90
66920;DHT22;53831;52.090;17.026;2022-09-28T00:13:31;7.70;99.90
66920;DHT22;53831;52.090;17.026;2022-09-28T00:14:32;7.80;99.90
66920;DHT22;53831;52.090;17.026;2022-09-28T00:15:33;7.80;99.90
66920;DHT22;53831;52.090;17.026;2022-09-28T00:16:36;7.70;99.90
66920;DHT22;53831;52.090;17.026;2022-09-28T00:17:37;7.70;99.90
66920;DHT22;53831;52.090;17.026;2022-09-28T00:18:37;7.70;99.90
66920;DHT22;53831;52.090;17.026;2022-09-28T00:19:38;7.70;99.90
66920;DHT22;53831;52.090;17.026;2022-09-28T00:20:39;7.70;99.90
66920;DHT22;53831;52.090;17.026;2022-09-28T00:21:40;7.70;99.90
66920;DHT22;53831;52.090;17.026;2022-09-28T00:22:41;7.70;99.90
66920;DHT22;53831;52.090;17.026;2022-09-28T00:23:42;7.70;99.90
66920;DHT22;53831;52.090;17.026;2022-09-28T00:25:01;7.60;99.90
66920;DHT22;53831;52.090;17.026;2022-09-28T00:26:03;7.60;99.90
66920;DHT22;53831;52.090;17.026;2022-09-28T00:27:03;7.60;99.90
66920;DHT22;53831;52.090;17.026;2022-09-28T00:28:05;7.60;99.90
66920;DHT22;53831;52.090;17.026;2022-09-28T00:29:07;7.60;99.90
66920;DHT22;53831;52.090;17.026;2022-09-28T00:30:12;7.60;99.90
66920;DHT22;53831;52.090;17.026;2022-09-28T00:31:16;7.60;99.90
66920;DHT22;53831;52.090;17.026;2022-09-28T00:32:17;7.60;99.90
66920;DHT22;53831;52.090;17.026;2022-09-28T00:33:18;7.60;99.90
66920;DHT22;53831;52.090;17.026;2022-09-28T00:34:18;7.60;99.90
66920;DHT22;53831;52.090;17.026;2022-09-28T00:35:19;7.60;99.90
66920;DHT22;53831;52.090;17.026;2022-09-28T00:36:19;7.50;99.90
66920;DHT22;53831;52.090;17.026;2022-09-28T00:37:20;7.60;99.90
66920;DHT22;53831;52.090;17.026;2022-09-28T00:38:21;7.50;99.90
66920;DHT22;53831;52.090;17.026;2022-09-28T00:39:21;7.50;99.90
66920;DHT22;53831;52.090;17.026;2022-09-28T00:40:22;7.50;99.90
66920;DHT22;53831;52.090;17.026;2022-09-28T00:41:23;7.50;99.90
66920;DHT22;53831;52.090;17.026;2022-09-28T00:42:25;7.50;99.90
66920;DHT22;53831;52.090;17.026;2022-09-28T00:43:25;7.50;99.90
66920;DHT22;53831;52.090;17.026;2022-09-28T00:45:53;7.40;99.90
66920;DHT22;53831;52.090;17.026;2022-09-28T00:48:02;7.40;99.90
66920;DHT22;53831;52.090;17.026;2022-09-28T00:49:04;7.40;99.90
66920;DHT22;53831;52.090;17.026;2022-09-28T00:50:17;7.40;99.90
66920;DHT22;53831;52.090;17.026;2022-09-28T00:51:19;7.30;99.90
66920;DHT22;53831;52.090;17.026;2022-09-28T00:52:25;7.30;99.90
66920;DHT22;53831;52.090;17.026;2022-09-28T00:53:28;7.30;99.90
66920;DHT22;53831;52.090;17.026;2022-09-28T00:54:30;7.30;99.90
66920;DHT22;53831;52.090;17.026;2022-09-28T00:55:33;7.30;99.90
66920;DHT22;53831;52.090;17.026;2022-09-28T00:56:36;7.30;99.90
66920;DHT22;53831;52.090;17.026;2022-09-28T00:57:37;7.30;99.90
66920;DHT22;53831;52.090;17.026;2022-09-28T00:58:41;7.30;99.90
66920;DHT22;53831;52.090;17.026;2022-09-28T00:59:42;7.30;99.90
66920;DHT22;53831;52.090;17.026;2022-09-28T01:00:43;7.30;99.90
66920;DHT22;53831;52.090;17.026;2022-09-28T01:01:44;7.30;99.90
66920;DHT22;53831;52.090;17.026;2022-09-28T01:02:44;7.30;99.90
66920;DHT22;53831;52.090;17.026;2022-09-28T01:03:45;7.30;99.90
66920;DHT22;53831;52.090;17.026;2022-09-28T01:04:48;7.30;99.90
66920;DHT22;53831;52.090;17.026;2022-09-28T01:05:49;7.20;99.90
66920;DHT22;53831;52.090;17.026;2022-09-28T01:06:50;7.20;99.90
66920;DHT22;53831;52.090;17.026;2022-09-28T01:07:51;7.20;99.90
66920;DHT22;53831;52.090;17.026;2022-09-28T01:08:54;7.20;99.90
66920;DHT22;53831;52.090;17.026;2022-09-28T01:09:57;7.30;99.90
66920;DHT22;53831;52.090;17.026;2022-09-28T01:10:58;7.20;99.90
66920;DHT22;53831;52.090;17.026;2022-09-28T01:12:00;7.20;99.90
66920;DHT22;53831;52.090;17.026;2022-09-28T01:13:01;7.20;99.90
66920;DHT22;53831;52.090;17.026;2022-09-28T01:14:02;7.20;99.90
66920;DHT22;53831;52.090;17.026;2022-09-28T01:15:06;7.20;99.90
66920;DHT22;53831;52.090;17.026;2022-09-28T01:16:12;7.20;99.90
66920;DHT22;53831;52.090;17.026;2022-09-28T01:17:15;7.20;99.90
66920;DHT22;53831;52.090;17.026;2022-09-28T01:18:29;7.10;99.90
66920;DHT22;53831;52.090;17.026;2022-09-28T01:21:02;7.20;99.90
66920;DHT22;53831;52.090;17.026;2022-09-28T01:28:05;7.10;99.90
66920;DHT22;53831;52.090;17.026;2022-09-28T01:30:28;7.10;99.90
66920;DHT22;53831;52.090;17.026;2022-09-28T01:31:31;7.10;99.90
66920;DHT22;53831;52.090;17.026;2022-09-28T01:32:35;7.10;99.90
66920;DHT22;53831;52.090;17.026;2022-09-28T01:33:40;7.10;99.90
66920;DHT22;53831;52.090;17.026;2022-09-28T01:34:44;7.10;99.90
66920;DHT22;53831;52.090;17.026;2022-09-28T01:35:47;7.00;99.90
66920;DHT22;53831;52.090;17.026;2022-09-28T01:36:52;7.00;99.90
66920;DHT22;53831;52.090;17.026;2022-09-28T01:39:51;6.90;99.90
66920;DHT22;53831;52.090;17.026;2022-09-28T01:40:52;6.90;99.90
66920;DHT22;53831;52.090;17.026;2022-09-28T01:41:54;6.90;99.90
66920;DHT22;53831;52.090;17.026;2022-09-28T01:42:59;6.90;99.90
66920;DHT22;53831;52.090;17.026;2022-09-28T01:44:01;6.90;99.90
66920;DHT22;53831;52.090;17.026;2022-09-28T01:45:06;6.90;99.90
66920;DHT22;53831;52.090;17.026;2022-09-28T01:46:10;6.80;99.90
66920;DHT22;53831;52.090;17.026;2022-09-28T01:47:12;6.80;99.90
66920;DHT22;53831;52.090;17.026;2022-09-28T01:48:34;6.80;99.90
66920;DHT22;53831;52.090;17.026;2022-09-28T01:49:38;6.80;99.90
66920;DHT22;53831;52.090;17.026;2022-09-28T01:50:40;6.80;99.90
66920;DHT22;53831;52.090;17.026;2022-09-28T01:51:48;6.80;99.90
66920;DHT22;53831;52.090;17.026;2022-09-28T01:52:52;6.80;99.90
66920;DHT22;53831;52.090;17.026;2022-09-28T01:53:57;6.80;99.90
66920;DHT22;53831;52.090;17.026;2022-09-28T01:56:27;6.70;99.90
66920;DHT22;53831;52.090;17.026;2022-09-28T01:57:36;6.70;99.90
66920;DHT22;53831;52.090;17.026;2022-09-28T01:58:57;6.70;99.90
66920;DHT22;53831;52.090;17.026;2022-09-28T02:00:08;6.70;99.90
66920;DHT22;53831;52.090;17.026;2022-09-28T02:01:20;6.70;99.90
66920;DHT22;53831;52.090;17.026;2022-09-28T02:02:23;6.70;99.90
66920;DHT22;53831;52.090;17.026;2022-09-28T02:03:30;6.70;99.90
66920;DHT22;53831;52.090;17.026;2022-09-28T02:04:36;6.70;99.90
66920;DHT22;53831;52.090;17.026;2022-09-28T02:05:39;6.60;99.90
66920;DHT22;53831;52.090;17.026;2022-09-28T02:06:42;6.60;99.90
66920;DHT22;53831;52.090;17.026;2022-09-28T02:07:48;6.60;99.90
66920;DHT22;53831;52.090;17.026;2022-09-28T02:08:52;6.60;99.90
66920;DHT22;53831;52.090;17.026;2022-09-28T02:09:58;6.50;99.90
66920;DHT22;53831;52.090;17.026;2022-09-28T02:11:13;6.50;99.90
66920;DHT22;53831;52.090;17.026;2022-09-28T02:12:19;6.50;99.90
66920;DHT22;53831;52.090;17.026;2022-09-28T02:13:24;6.50;99.90
66920;DHT22;53831;52.090;17.026;2022-09-28T02:14:27;6.50;99.90
66920;DHT22;53831;52.090;17.026;2022-09-28T02:15:30;6.40;99.90
66920;DHT22;53831;52.090;17.026;2022-09-28T02:17:34;6.40;99.90
66920;DHT22;53831;52.090;17.026;2022-09-28T02:18:35;6.40;99.90
66920;DHT22;53831;52.090;17.026;2022-09-28T02:19:36;6.40;99.90
66920;DHT22;53831;52.090;17.026;2022-09-28T02:20:37;6.40;99.90
66920;DHT22;53831;52.090;17.026;2022-09-28T02:21:47;6.30;99.90
66920;DHT22;53831;52.090;17.026;2022-09-28T02:22:54;6.30;99.90
66920;DHT22;53831;52.090;17.026;2022-09-28T02:24:02;6.30;99.90
66920;DHT22;53831;52.090;17.026;2022-09-28T02:26:27;6.30;99.90
66920;DHT22;53831;52.090;17.026;2022-09-28T02:27:35;6.30;99.90
66920;DHT22;53831;52.090;17.026;2022-09-28T02:28:38;6.40;99.90
66920;DHT22;53831;52.090;17.026;2022-09-28T02:29:39;6.40;99.90
66920;DHT22;53831;52.090;17.026;2022-09-28T02:30:40;6.40;99.90
66920;DHT22;53831;52.090;17.026;2022-09-28T02:31:41;6.40;99.90
66920;DHT22;53831;52.090;17.026;2022-09-28T02:32:44;6.30;99.90
66920;DHT22;53831;52.090;17.026;2022-09-28T02:33:46;6.30;99.90
66920;DHT22;53831;52.090;17.026;2022-09-28T02:34:47;6.30;99.90
66920;DHT22;53831;52.090;17.026;2022-09-28T02:35:47;6.30;99.90
66920;DHT22;53831;52.090;17.026;2022-09-28T02:36:48;6.30;99.90
66920;DHT22;53831;52.090;17.026;2022-09-28T02:37:49;6.30;99.90
66920;DHT22;53831;52.090;17.026;2022-09-28T02:38:50;6.30;99.90
66920;DHT22;53831;52.090;17.026;2022-09-28T02:39:51;6.20;99.90
66920;DHT22;53831;52.090;17.026;2022-09-28T02:41:15;6.30;99.90
66920;DHT22;53831;52.090;17.026;2022-09-28T02:42:25;6.30;99.90
66920;DHT22;53831;52.090;17.026;2022-09-28T02:43:37;6.20;99.90
66920;DHT22;53831;52.090;17.026;2022-09-28T02:44:42;6.20;99.90
66920;DHT22;53831;52.090;17.026;2022-09-28T02:48:58;6.20;99.90
66920;DHT22;53831;52.090;17.026;2022-09-28T02:51:37;6.10;99.90
66920;DHT22;53831;52.090;17.026;2022-09-28T02:54:00;6.10;99.90
66920;DHT22;53831;52.090;17.026;2022-09-28T03:00:05;6.10;99.90
66920;DHT22;53831;52.090;17.026;2022-09-28T03:03:35;5.90;99.90
66920;DHT22;53831;52.090;17.026;2022-09-28T03:04:45;5.90;99.90
66920;DHT22;53831;52.090;17.026;2022-09-28T03:05:56;5.90;99.90
66920;DHT22;53831;52.090;17.026;2022-09-28T03:07:04;5.90;99.90
66920;DHT22;53831;52.090;17.026;2022-09-28T03:08:06;5.80;99.90
66920;DHT22;53831;52.090;17.026;2022-09-28T03:09:13;5.80;99.90
66920;DHT22;53831;52.090;17.026;2022-09-28T03:11:34;5.70;99.90
66920;DHT22;53831;52.090;17.026;2022-09-28T03:12:36;5.70;99.90
66920;DHT22;53831;52.090;17.026;2022-09-28T03:13:37;5.60;99.90
66920;DHT22;53831;52.090;17.026;2022-09-28T03:14:38;5.60;99.90
66920;DHT22;53831;52.090;17.026;2022-09-28T03:15:39;5.60;99.90
66920;DHT22;53831;52.090;17.026;2022-09-28T03:16:42;5.50;99.90
66920;DHT22;53831;52.090;17.026;2022-09-28T03:17:43;5.50;99.90
66920;DHT22;53831;52.090;17.026;2022-09-28T03:18:44;5.40;99.90
66920;DHT22;53831;52.090;17.026;2022-09-28T03:19:44;5.40;99.90
66920;DHT22;53831;52.090;17.026;2022-09-28T03:20:45;5.40;99.90
66920;DHT22;53831;52.090;17.026;2022-09-28T03:21:46;5.40;99.90
66920;DHT22;53831;52.090;17.026;2022-09-28T03:22:46;5.40;99.90
66920;DHT22;53831;52.090;17.026;2022-09-28T03:23:48;5.40;99.90
66920;DHT22;53831;52.090;17.026;2022-09-28T03:24:50;5.40;99.90
66920;DHT22;53831;52.090;17.026;2022-09-28T03:25:50;5.40;99.90
66920;DHT22;53831;52.090;17.026;2022-09-28T03:26:51;5.40;99.90
66920;DHT22;53831;52.090;17.026;2022-09-28T03:27:52;5.50;99.90
66920;DHT22;53831;52.090;17.026;2022-09-28T03:28:53;5.50;99.90
66920;DHT22;53831;52.090;17.026;2022-09-28T03:29:57;5.50;99.90
66920;DHT22;53831;52.090;17.026;2022-09-28T03:30:58;5.60;99.90
66920;DHT22;53831;52.090;17.026;2022-09-28T03:31:59;5.60;99.90
66920;DHT22;53831;52.090;17.026;2022-09-28T03:32:59;5.70;99.90
66920;DHT22;53831;52.090;17.026;2022-09-28T03:34:04;5.70;99.90
66920;DHT22;53831;52.090;17.026;2022-09-28T03:35:06;5.80;99.90
66920;DHT22;53831;52.090;17.026;2022-09-28T03:36:07;5.80;99.90
66920;DHT22;53831;52.090;17.026;2022-09-28T03:37:09;5.80;99.90
66920;DHT22;53831;52.090;17.026;2022-09-28T03:38:10;5.90;99.90
66920;DHT22;53831;52.090;17.026;2022-09-28T03:39:12;5.80;99.90
66920;DHT22;53831;52.090;17.026;2022-09-28T03:40:12;5.90;99.90
66920;DHT22;53831;52.090;17.026;2022-09-28T03:41:13;5.90;99.90
66920;DHT22;53831;52.090;17.026;2022-09-28T03:42:16;5.90;99.90
66920;DHT22;53831;52.090;17.026;2022-09-28T03:43:21;5.90;99.90
66920;DHT22;53831;52.090;17.026;2022-09-28T03:44:22;6.00;99.90
66920;DHT22;53831;52.090;17.026;2022-09-28T03:45:23;5.90;99.90
66920;DHT22;53831;52.090;17.026;2022-09-28T03:46:25;6.00;99.90
66920;DHT22;53831;52.090;17.026;2022-09-28T03:47:30;6.00;99.90
66920;DHT22;53831;52.090;17.026;2022-09-28T03:48:33;6.00;99.90
66920;DHT22;53831;52.090;17.026;2022-09-28T03:49:34;6.00;99.90
66920;DHT22;53831;52.090;17.026;2022-09-28T03:50:35;6.00;99.90
66920;DHT22;53831;52.090;17.026;2022-09-28T03:51:35;6.00;99.90
66920;DHT22;53831;52.090;17.026;2022-09-28T03:52:36;6.00;99.90
66920;DHT22;53831;52.090;17.026;2022-09-28T03:53:36;6.00;99.90
66920;DHT22;53831;52.090;17.026;2022-09-28T03:54:37;6.00;99.90
66920;DHT22;53831;52.090;17.026;2022-09-28T03:55:38;6.00;99.90
66920;DHT22;53831;52.090;17.026;2022-09-28T03:56:39;6.00;99.90
66920;DHT22;53831;52.090;17.026;2022-09-28T03:57:40;6.00;99.90
66920;DHT22;53831;52.090;17.026;2022-09-28T03:58:40;6.00;99.90
66920;DHT22;53831;52.090;17.026;2022-09-28T03:59:42;6.00;99.90
66920;DHT22;53831;52.090;17.026;2022-09-28T04:00:43;6.10;99.90
66920;DHT22;53831;52.090;17.026;2022-09-28T04:01:44;6.10;99.90
66920;DHT22;53831;52.090;17.026;2022-09-28T04:02:44;6.10;99.90
66920;DHT22;53831;52.090;17.026;2022-09-28T04:03:45;6.10;99.90
66920;DHT22;53831;52.090;17.026;2022-09-28T04:04:45;6.10;99.90
66920;DHT22;53831;52.090;17.026;2022-09-28T04:05:49;6.10;99.90
66920;DHT22;53831;52.090;17.026;2022-09-28T04:06:50;6.20;99.90
66920;DHT22;53831;52.090;17.026;2022-09-28T04:07:52;6.10;99.90
66920;DHT22;53831;52.090;17.026;2022-09-28T04:08:55;6.10;99.90
66920;DHT22;53831;52.090;17.026;2022-09-28T04:09:55;6.10;99.90
66920;DHT22;53831;52.090;17.026;2022-09-28T04:10:56;6.10;99.90
66920;DHT22;53831;52.090;17.026;2022-09-28T04:11:57;6.10;99.90
66920;DHT22;53831;52.090;17.026;2022-09-28T04:12:58;6.10;99.90
66920;DHT22;53831;52.090;17.026;2022-09-28T04:13:59;6.10;99.90
66920;DHT22;53831;52.090;17.026;2022-09-28T04:15:00;6.10;99.90
66920;DHT22;53831;52.090;17.026;2022-09-28T04:16:01;6.10;99.90
66920;DHT22;53831;52.090;17.026;2022-09-28T04:17:03;6.20;99.90
66920;DHT22;53831;52.090;17.026;2022-09-28T04:18:09;6.10;99.90
66920;DHT22;53831;52.090;17.026;2022-09-28T04:19:24;6.10;99.90
66920;DHT22;53831;52.090;17.026;2022-09-28T04:20:47;6.10;99.90
66920;DHT22;53831;52.090;17.026;2022-09-28T04:21:56;6.10;99.90
66920;DHT22;53831;52.090;17.026;2022-09-28T04:22:57;6.10;99.90
66920;DHT22;53831;52.090;17.026;2022-09-28T04:23:57;6.20;99.90
66920;DHT22;53831;52.090;17.026;2022-09-28T04:24:58;6.20;99.90
66920;DHT22;53831;52.090;17.026;2022-09-28T04:26:04;6.20;99.90
66920;DHT22;53831;52.090;17.026;2022-09-28T04:27:05;6.20;99.90
66920;DHT22;53831;52.090;17.026;2022-09-28T04:28:25;6.20;99.90
66920;DHT22;53831;52.090;17.026;2022-09-28T04:29:44;6.20;99.90
66920;DHT22;53831;52.090;17.026;2022-09-28T04:30:47;6.20;99.90
66920;DHT22;53831;52.090;17.026;2022-09-28T04:31:48;6.30;99.90
66920;DHT22;53831;52.090;17.026;2022-09-28T04:32:50;6.30;99.90
66920;DHT22;53831;52.090;17.026;2022-09-28T04:33:51;6.30;99.90
66920;DHT22;53831;52.090;17.026;2022-09-28T04:34:53;6.30;99.90
66920;DHT22;53831;52.090;17.026;2022-09-28T04:35:53;6.30;99.90
66920;DHT22;53831;52.090;17.026;2022-09-28T04:36:54;6.30;99.90
66920;DHT22;53831;52.090;17.026;2022-09-28T04:37:55;6.30;99.90
66920;DHT22;53831;52.090;17.026;2022-09-28T04:38:56;6.30;99.90
66920;DHT22;53831;52.090;17.026;2022-09-28T04:39:58;6.30;99.90
66920;DHT22;53831;52.090;17.026;2022-09-28T04:40:59;6.30;99.90
66920;DHT22;53831;52.090;17.026;2022-09-28T04:42:00;6.30;99.90
66920;DHT22;53831;52.090;17.026;2022-09-28T04:43:01;6.30;99.90
66920;DHT22;53831;52.090;17.026;2022-09-28T04:44:02;6.30;99.90
66920;DHT22;53831;52.090;17.026;2022-09-28T04:45:03;6.30;99.90
66920;DHT22;53831;52.090;17.026;2022-09-28T04:46:05;6.30;99.90
66920;DHT22;53831;52.090;17.026;2022-09-28T04:47:12;6.20;99.90
66920;DHT22;53831;52.090;17.026;2022-09-28T04:48:32;6.20;99.90
66920;DHT22;53831;52.090;17.026;2022-09-28T04:49:40;6.20;99.90
66920;DHT22;53831;52.090;17.026;2022-09-28T04:50:43;6.20;99.90
66920;DHT22;53831;52.090;17.026;2022-09-28T04:51:52;6.20;99.90
66920;DHT22;53831;52.090;17.026;2022-09-28T04:52:53;6.20;99.90
66920;DHT22;53831;52.090;17.026;2022-09-28T04:53:54;6.10;99.90
66920;DHT22;53831;52.090;17.026;2022-09-28T04:54:54;6.10;99.90
66920;DHT22;53831;52.090;17.026;2022-09-28T04:56:02;6.10;99.90
66920;DHT22;53831;52.090;17.026;2022-09-28T04:57:04;6.10;99.90
66920;DHT22;53831;52.090;17.026;2022-09-28T04:58:05;6.00;99.90
66920;DHT22;53831;52.090;17.026;2022-09-28T04:59:06;6.10;99.90
66920;DHT22;53831;52.090;17.026;2022-09-28T05:00:07;6.10;99.90
66920;DHT22;53831;52.090;17.026;2022-09-28T05:01:11;6.10;99.90
66920;DHT22;53831;52.090;17.026;2022-09-28T05:02:40;6.10;99.90
66920;DHT22;53831;52.090;17.026;2022-09-28T05:04:04;6.00;99.90
66920;DHT22;53831;52.090;17.026;2022-09-28T05:05:20;6.00;99.90
66920;DHT22;53831;52.090;17.026;2022-09-28T05:06:53;6.00;99.90
66920;DHT22;53831;52.090;17.026;2022-09-28T05:07:56;6.00;99.90
66920;DHT22;53831;52.090;17.026;2022-09-28T05:08:56;6.00;99.90
66920;DHT22;53831;52.090;17.026;2022-09-28T05:09:57;6.00;99.90
66920;DHT22;53831;52.090;17.026;2022-09-28T05:11:07;6.00;99.90
66920;DHT22;53831;52.090;17.026;2022-09-28T05:12:08;5.90;99.90
66920;DHT22;53831;52.090;17.026;2022-09-28T05:13:09;6.00;99.90
66920;DHT22;53831;52.090;17.026;2022-09-28T05:14:10;6.00;99.90
66920;DHT22;53831;52.090;17.026;2022-09-28T05:15:13;6.00;99.90
66920;DHT22;53831;52.090;17.026;2022-09-28T05:16:15;6.00;99.90
66920;DHT22;53831;52.090;17.026;2022-09-28T05:17:38;6.00;99.90
66920;DHT22;53831;52.090;17.026;2022-09-28T05:18:54;6.10;99.90
66920;DHT22;53831;52.090;17.026;2022-09-28T05:19:55;6.10;99.90
66920;DHT22;53831;52.090;17.026;2022-09-28T05:20:56;6.10;99.90
66920;DHT22;53831;52.090;17.026;2022-09-28T05:21:56;6.10;99.90
66920;DHT22;53831;52.090;17.026;2022-09-28T05:22:57;6.10;99.90
66920;DHT22;53831;52.090;17.026;2022-09-28T05:23:58;6.20;99.90
66920;DHT22;53831;52.090;17.026;2022-09-28T05:24:59;6.20;99.90
66920;DHT22;53831;52.090;17.026;2022-09-28T05:26:06;6.30;99.90
66920;DHT22;53831;52.090;17.026;2022-09-28T05:27:09;6.30;99.90
66920;DHT22;53831;52.090;17.026;2022-09-28T05:28:09;6.40;99.90
66920;DHT22;53831;52.090;17.026;2022-09-28T05:29:30;6.40;99.90
66920;DHT22;53831;52.090;17.026;2022-09-28T05:31:03;6.50;99.90
66920;DHT22;53831;52.090;17.026;2022-09-28T05:32:43;6.50;99.90
66920;DHT22;53831;52.090;17.026;2022-09-28T05:34:02;6.60;99.90
66920;DHT22;53831;52.090;17.026;2022-09-28T05:35:02;6.70;99.90
66920;DHT22;53831;52.090;17.026;2022-09-28T05:36:12;6.70;99.90
66920;DHT22;53831;52.090;17.026;2022-09-28T05:37:13;6.80;99.90
66920;DHT22;53831;52.090;17.026;2022-09-28T05:38:14;6.90;99.90
66920;DHT22;53831;52.090;17.026;2022-09-28T05:39:14;6.90;99.90
66920;DHT22;53831;52.090;17.026;2022-09-28T05:40:15;6.90;99.90
66920;DHT22;53831;52.090;17.026;2022-09-28T05:41:16;7.00;99.90
66920;DHT22;53831;52.090;17.026;2022-09-28T05:42:16;7.10;99.90
66920;DHT22;53831;52.090;17.026;2022-09-28T05:43:17;7.10;99.90
66920;DHT22;53831;52.090;17.026;2022-09-28T05:44:17;7.20;99.90
66920;DHT22;53831;52.090;17.026;2022-09-28T05:45:18;7.20;99.90
66920;DHT22;53831;52.090;17.026;2022-09-28T05:46:19;7.30;99.90
66920;DHT22;53831;52.090;17.026;2022-09-28T05:47:23;7.30;99.90
66920;DHT22;53831;52.090;17.026;2022-09-28T05:48:25;7.40;99.90
66920;DHT22;53831;52.090;17.026;2022-09-28T05:49:27;7.40;99.90
66920;DHT22;53831;52.090;17.026;2022-09-28T05:50:28;7.50;99.90
66920;DHT22;53831;52.090;17.026;2022-09-28T05:51:29;7.50;99.90
66920;DHT22;53831;52.090;17.026;2022-09-28T05:52:29;7.60;99.90
66920;DHT22;53831;52.090;17.026;2022-09-28T05:53:32;7.60;99.90
66920;DHT22;53831;52.090;17.026;2022-09-28T05:54:33;7.60;99.90
66920;DHT22;53831;52.090;17.026;2022-09-28T05:55:35;7.60;99.90
66920;DHT22;53831;52.090;17.026;2022-09-28T05:56:35;7.70;99.90
66920;DHT22;53831;52.090;17.026;2022-09-28T05:57:39;7.70;99.90
66920;DHT22;53831;52.090;17.026;2022-09-28T05:58:40;7.70;99.90
66920;DHT22;53831;52.090;17.026;2022-09-28T05:59:42;7.70;99.90
66920;DHT22;53831;52.090;17.026;2022-09-28T06:00:44;7.80;99.90
66920;DHT22;53831;52.090;17.026;2022-09-28T06:01:44;7.80;99.90
66920;DHT22;53831;52.090;17.026;2022-09-28T06:02:53;7.80;99.90
66920;DHT22;53831;52.090;17.026;2022-09-28T06:03:54;7.80;99.90
66920;DHT22;53831;52.090;17.026;2022-09-28T06:04:54;7.80;99.90
66920;DHT22;53831;52.090;17.026;2022-09-28T06:05:55;7.80;99.90
66920;DHT22;53831;52.090;17.026;2022-09-28T06:06:57;7.90;99.90
66920;DHT22;53831;52.090;17.026;2022-09-28T06:07:58;7.80;99.90
66920;DHT22;53831;52.090;17.026;2022-09-28T06:08:58;7.90;99.90
66920;DHT22;53831;52.090;17.026;2022-09-28T06:10:08;7.90;99.90
66920;DHT22;53831;52.090;17.026;2022-09-28T06:11:16;7.90;99.90
66920;DHT22;53831;52.090;17.026;2022-09-28T06:12:17;7.90;99.90
66920;DHT22;53831;52.090;17.026;2022-09-28T06:13:21;8.00;99.90
66920;DHT22;53831;52.090;17.026;2022-09-28T06:14:21;8.00;99.90
66920;DHT22;53831;52.090;17.026;2022-09-28T06:15:22;8.00;99.90
66920;DHT22;53831;52.090;17.026;2022-09-28T06:16:23;8.00;99.90
66920;DHT22;53831;52.090;17.026;2022-09-28T06:17:25;8.10;99.90
66920;DHT22;53831;52.090;17.026;2022-09-28T06:18:45;8.10;99.90
66920;DHT22;53831;52.090;17.026;2022-09-28T06:20:04;8.10;99.90
66920;DHT22;53831;52.090;17.026;2022-09-28T06:21:25;8.20;99.90
66920;DHT22;53831;52.090;17.026;2022-09-28T06:22:26;8.20;99.90
66920;DHT22;53831;52.090;17.026;2022-09-28T06:23:36;8.20;99.90
66920;DHT22;53831;52.090;17.026;2022-09-28T06:24:38;8.20;99.90
66920;DHT22;53831;52.090;17.026;2022-09-28T06:25:39;8.30;99.90
66920;DHT22;53831;52.090;17.026;2022-09-28T06:26:39;8.30;99.90
66920;DHT22;53831;52.090;17.026;2022-09-28T06:27:41;8.30;99.90
66920;DHT22;53831;52.090;17.026;2022-09-28T06:28:42;8.30;99.90
66920;DHT22;53831;52.090;17.026;2022-09-28T06:29:43;8.30;99.90
66920;DHT22;53831;52.090;17.026;2022-09-28T06:30:43;8.30;99.90
66920;DHT22;53831;52.090;17.026;2022-09-28T06:31:46;8.40;99.90
66920;DHT22;53831;52.090;17.026;2022-09-28T06:32:47;8.40;99.90
66920;DHT22;53831;52.090;17.026;2022-09-28T06:33:49;8.40;99.90
66920;DHT22;53831;52.090;17.026;2022-09-28T06:34:51;8.40;99.90
66920;DHT22;53831;52.090;17.026;2022-09-28T06:35:53;8.40;99.90
66920;DHT22;53831;52.090;17.026;2022-09-28T06:36:53;8.50;99.90
66920;DHT22;53831;52.090;17.026;2022-09-28T06:37:59;8.60;99.90
66920;DHT22;53831;52.090;17.026;2022-09-28T06:39:13;8.50;99.90
66920;DHT22;53831;52.090;17.026;2022-09-28T06:40:22;8.60;99.90
66920;DHT22;53831;52.090;17.026;2022-09-28T06:41:23;8.60;99.90
66920;DHT22;53831;52.090;17.026;2022-09-28T06:42:33;8.60;99.90
66920;DHT22;53831;52.090;17.026;2022-09-28T06:44:09;8.60;99.90
66920;DHT22;53831;52.090;17.026;2022-09-28T06:45:29;8.60;99.90
66920;DHT22;53831;52.090;17.026;2022-09-28T06:46:56;8.70;99.90
66920;DHT22;53831;52.090;17.026;2022-09-28T06:47:57;8.70;99.90
66920;DHT22;53831;52.090;17.026;2022-09-28T06:49:05;8.70;99.90
66920;DHT22;53831;52.090;17.026;2022-09-28T06:50:30;8.70;99.90
66920;DHT22;53831;52.090;17.026;2022-09-28T06:51:53;8.70;99.90
66920;DHT22;53831;52.090;17.026;2022-09-28T06:53:09;8.70;99.90
66920;DHT22;53831;52.090;17.026;2022-09-28T06:54:23;8.70;99.90
66920;DHT22;53831;52.090;17.026;2022-09-28T06:55:39;8.80;99.90
66920;DHT22;53831;52.090;17.026;2022-09-28T06:56:40;8.80;99.90
66920;DHT22;53831;52.090;17.026;2022-09-28T06:57:40;8.80;99.90
66920;DHT22;53831;52.090;17.026;2022-09-28T06:58:41;8.90;99.90
66920;DHT22;53831;52.090;17.026;2022-09-28T06:59:42;8.90;99.90
66920;DHT22;53831;52.090;17.026;2022-09-28T07:00:44;9.00;99.90
66920;DHT22;53831;52.090;17.026;2022-09-28T07:01:45;9.00;99.90
66920;DHT22;53831;52.090;17.026;2022-09-28T07:03:05;9.00;99.90
66920;DHT22;53831;52.090;17.026;2022-09-28T07:04:28;9.00;99.90
66920;DHT22;53831;52.090;17.026;2022-09-28T07:05:49;9.10;99.90
66920;DHT22;53831;52.090;17.026;2022-09-28T07:07:09;9.10;99.90
66920;DHT22;53831;52.090;17.026;2022-09-28T07:08:28;9.20;99.90
66920;DHT22;53831;52.090;17.026;2022-09-28T07:09:51;9.20;99.90
66920;DHT22;53831;52.090;17.026;2022-09-28T07:11:06;9.30;99.90
66920;DHT22;53831;52.090;17.026;2022-09-28T07:12:39;9.30;99.90
66920;DHT22;53831;52.090;17.026;2022-09-28T07:13:57;9.30;99.90
66920;DHT22;53831;52.090;17.026;2022-09-28T07:14:57;9.40;99.90
66920;DHT22;53831;52.090;17.026;2022-09-28T07:16:01;9.40;99.90
66920;DHT22;53831;52.090;17.026;2022-09-28T07:17:01;9.40;99.90
66920;DHT22;53831;52.090;17.026;2022-09-28T07:18:03;9.40;99.90
66920;DHT22;53831;52.090;17.026;2022-09-28T07:19:05;9.50;99.90